createdAt,value
2019-02-16T00:03:41.969Z,99.90
2019-02-16T00:06:23.665Z,99.90
2019-02-16T00:09:05.677Z,99.90
2019-02-16T00:11:49.145Z,99.90
2019-02-16T00:14:31.915Z,99.90
2019-02-16T00:17:13.820Z,99.90
2019-02-16T00:19:55.610Z,99.90
2019-02-16T00:22:37.531Z,99.90
2019-02-16T00:25:19.576Z,99.90
2019-02-16T00:28:01.540Z,99.90
2019-02-16T00:30:43.989Z,99.90
2019-02-16T00:33:25.849Z,99.90
2019-02-16T00:36:08.612Z,99.90
2019-02-16T00:38:51.057Z,99.90
2019-02-16T00:41:32.885Z,99.90
2019-02-16T00:44:14.557Z,99.90
2019-02-16T00:46:57.381Z,99.90
2019-02-16T00:49:39.958Z,99.90
2019-02-16T00:52:21.851Z,99.90
2019-02-16T00:55:03.885Z,99.90
2019-02-16T00:57:45.923Z,99.90
2019-02-16T01:00:28.705Z,99.90
2019-02-16T01:03:10.676Z,99.90
2019-02-16T01:05:52.734Z,99.90
2019-02-16T01:08:35.612Z,99.90
2019-02-16T01:11:18.094Z,99.90
2019-02-16T01:13:58.950Z,99.90
2019-02-16T01:16:48.568Z,99.90
2019-02-16T01:19:31.313Z,99.90
2019-02-16T01:22:14.025Z,99.90
2019-02-16T01:24:56.341Z,99.90
2019-02-16T01:27:38.413Z,99.90
2019-02-16T01:30:20.392Z,99.90
2019-02-16T01:33:02.665Z,99.90
2019-02-16T01:35:44.414Z,99.90
2019-02-16T01:38:26.143Z,99.90
2019-02-16T01:41:08.548Z,99.90
2019-02-16T01:43:50.912Z,99.90
2019-02-16T01:46:33.380Z,99.90
2019-02-16T01:49:15.796Z,99.90
2019-02-16T01:51:56.625Z,99.90
2019-02-16T01:54:46.229Z,99.90
2019-02-16T01:57:28.274Z,99.90
2019-02-16T02:00:10.472Z,99.90
2019-02-16T02:02:52.172Z,99.90
2019-02-16T02:05:34.821Z,99.90
2019-02-16T02:08:17.325Z,99.90
2019-02-16T02:11:00.292Z,99.90
2019-02-16T02:13:42.076Z,99.90
2019-02-16T02:16:24.488Z,99.90
2019-02-16T02:19:06.277Z,99.90
2019-02-16T02:21:48.704Z,99.90
2019-02-16T02:24:30.459Z,99.90
2019-02-16T02:27:13.000Z,99.90
2019-02-16T02:29:55.600Z,99.90
2019-02-16T02:32:37.250Z,99.90
2019-02-16T02:35:20.045Z,99.90
2019-02-16T02:38:01.945Z,99.90
2019-02-16T02:40:44.796Z,99.90
2019-02-16T02:43:26.673Z,99.90
2019-02-16T02:46:09.520Z,99.90
2019-02-16T02:48:49.937Z,99.90
2019-02-16T02:51:39.593Z,99.90
2019-02-16T02:54:21.541Z,99.90
2019-02-16T02:57:03.898Z,99.90
2019-02-16T02:59:45.597Z,99.90
2019-02-16T03:02:28.321Z,99.90
2019-02-16T03:05:10.316Z,99.90
2019-02-16T03:07:52.661Z,99.90
2019-02-16T03:10:35.182Z,99.90
2019-02-16T03:13:18.332Z,99.90
2019-02-16T03:16:00.245Z,99.90
2019-02-16T03:18:42.820Z,99.90
2019-02-16T03:21:25.108Z,99.90
2019-02-16T03:24:07.164Z,99.90
2019-02-16T03:26:49.196Z,99.90
2019-02-16T03:29:31.832Z,99.90
2019-02-16T03:32:14.197Z,99.90
2019-02-16T03:34:56.742Z,99.90
2019-02-16T03:37:39.281Z,99.90
2019-02-16T03:40:20.954Z,99.90
2019-02-16T03:43:03.425Z,99.90
2019-02-16T03:45:47.000Z,99.90
2019-02-16T03:48:29.461Z,99.90
2019-02-16T03:51:11.613Z,99.90
2019-02-16T03:53:53.378Z,99.90
2019-02-16T03:56:35.456Z,99.90
2019-02-16T03:59:18.244Z,99.90
2019-02-16T04:02:00.678Z,99.90
2019-02-16T04:04:43.117Z,99.90
2019-02-16T04:07:25.628Z,99.90
2019-02-16T04:10:07.892Z,99.90
2019-02-16T04:12:50.350Z,99.90
2019-02-16T04:15:33.038Z,99.90
2019-02-16T04:18:15.057Z,99.90
2019-02-16T04:20:57.146Z,99.90
2019-02-16T04:23:39.250Z,99.90
2019-02-16T04:26:20.117Z,99.90
2019-02-16T04:29:09.718Z,99.90
2019-02-16T04:31:52.260Z,99.90
2019-02-16T04:34:34.561Z,99.90
2019-02-16T04:37:16.288Z,99.90
2019-02-16T04:39:58.129Z,99.90
2019-02-16T04:42:39.972Z,99.90
2019-02-16T04:45:22.785Z,99.90
2019-02-16T04:48:05.432Z,99.90
2019-02-16T04:50:45.825Z,99.90
2019-02-16T04:53:28.192Z,99.90
2019-02-16T04:56:10.697Z,99.90
2019-02-16T04:58:51.254Z,99.90
2019-02-16T05:01:40.614Z,99.90
2019-02-16T05:04:23.176Z,99.90
2019-02-16T05:07:05.781Z,99.90
2019-02-16T05:09:46.374Z,99.90
2019-02-16T05:12:36.056Z,99.90
2019-02-16T05:15:18.916Z,99.90
2019-02-16T05:18:01.324Z,99.90
2019-02-16T05:20:43.056Z,99.90
2019-02-16T05:23:25.504Z,99.90
2019-02-16T05:26:07.417Z,99.90
2019-02-16T05:28:50.044Z,99.90
2019-02-16T05:31:31.913Z,99.90
2019-02-16T05:34:13.789Z,99.90
2019-02-16T05:36:56.257Z,99.90
2019-02-16T05:39:39.017Z,99.90
2019-02-16T05:42:20.960Z,99.90
2019-02-16T05:45:01.549Z,99.90
2019-02-16T05:47:51.249Z,99.90
2019-02-16T05:50:34.164Z,99.90
2019-02-16T05:53:16.506Z,99.90
2019-02-16T05:55:59.241Z,99.90
2019-02-16T05:58:41.720Z,99.90
2019-02-16T06:01:22.448Z,99.90
2019-02-16T06:04:12.012Z,99.90
2019-02-16T06:06:53.988Z,99.90
2019-02-16T06:09:34.384Z,99.90
2019-02-16T06:12:24.079Z,99.90
2019-02-16T06:15:07.227Z,99.90
2019-02-16T06:17:49.832Z,99.90
2019-02-16T06:20:31.833Z,99.90
2019-02-16T06:23:14.340Z,99.90
2019-02-16T06:25:56.519Z,99.90
2019-02-16T06:28:39.029Z,99.90
2019-02-16T06:31:22.120Z,99.90
2019-02-16T06:34:02.744Z,99.90
2019-02-16T06:36:52.100Z,99.90
2019-02-16T06:39:34.777Z,99.90
2019-02-16T06:42:17.438Z,99.90
2019-02-16T06:44:59.208Z,99.90
2019-02-16T06:47:41.500Z,99.90
2019-02-16T06:50:23.260Z,99.90
2019-02-16T06:53:12.897Z,99.90
2019-02-16T06:55:50.541Z,99.90
2019-02-16T06:58:20.568Z,99.90
2019-02-16T07:00:51.133Z,99.90
2019-02-16T07:03:21.225Z,99.90
2019-02-16T07:06:03.802Z,99.90
2019-02-16T07:08:45.550Z,99.90
2019-02-16T07:11:27.647Z,99.90
2019-02-16T07:14:09.384Z,99.90
2019-02-16T07:20:18.588Z,99.90
2019-02-16T07:23:01.100Z,99.90
2019-02-16T07:25:43.833Z,99.90
2019-02-16T07:28:26.477Z,99.90
2019-02-16T07:31:10.189Z,99.90
2019-02-16T07:33:53.018Z,99.90
2019-02-16T07:36:35.665Z,99.90
2019-02-16T07:39:17.889Z,99.90
2019-02-16T07:41:59.945Z,99.90
2019-02-16T07:44:47.141Z,99.90
2019-02-16T07:47:48.741Z,99.90
2019-02-16T07:50:50.384Z,99.90
2019-02-16T07:53:52.100Z,99.90
2019-02-16T07:56:46.910Z,99.90
2019-02-16T07:59:31.981Z,99.90
2019-02-16T08:02:14.561Z,99.90
2019-02-16T08:05:03.707Z,99.90
2019-02-16T08:08:01.685Z,99.90
2019-02-16T08:10:57.609Z,99.90
2019-02-16T08:13:58.910Z,99.90
2019-02-16T08:16:46.733Z,99.90
2019-02-16T08:19:43.601Z,99.90
2019-02-16T08:22:44.452Z,99.90
2019-02-16T08:25:45.600Z,99.90
2019-02-16T08:28:42.724Z,99.90
2019-02-16T08:31:20.319Z,99.90
2019-02-16T08:34:28.749Z,99.90
2019-02-16T08:37:30.094Z,99.90
2019-02-16T08:40:25.708Z,99.90
2019-02-16T08:43:18.260Z,99.90
2019-02-16T08:46:19.713Z,99.90
2019-02-16T08:49:12.725Z,99.90
2019-02-16T08:52:09.508Z,99.90
2019-02-16T08:58:14.736Z,99.90
2019-02-16T09:01:16.424Z,99.90
2019-02-16T09:04:06.093Z,99.90
2019-02-16T09:06:57.677Z,99.90
2019-02-16T09:10:13.606Z,99.90
2019-02-16T09:12:58.100Z,99.90
2019-02-16T09:15:37.856Z,99.90
2019-02-16T09:18:16.384Z,99.90
2019-02-16T09:21:15.263Z,99.90
2019-02-16T09:30:56.640Z,99.90
2019-02-16T09:33:58.025Z,99.90
2019-02-16T09:36:53.845Z,99.90
2019-02-16T09:39:42.813Z,99.90
2019-02-16T09:42:35.099Z,99.90
2019-02-16T09:45:24.209Z,99.90
2019-02-16T09:48:25.014Z,99.90
2019-02-16T09:51:13.485Z,99.90
2019-02-16T09:54:14.610Z,99.90
2019-02-16T09:57:15.525Z,99.90
2019-02-16T10:00:13.932Z,99.90
2019-02-16T10:02:51.713Z,99.90
2019-02-16T10:05:34.395Z,99.90
2019-02-16T10:11:44.874Z,99.80
2019-02-16T10:14:33.992Z,98.80
2019-02-16T10:17:26.378Z,99.10
2019-02-16T10:20:27.505Z,98.60
2019-02-16T10:23:19.388Z,97.80
2019-02-16T10:26:14.387Z,97.70
2019-02-16T10:29:02.590Z,97.20
2019-02-16T10:31:44.484Z,96.30
2019-02-16T10:34:25.721Z,95.90
2019-02-16T10:37:03.840Z,95.40
2019-02-16T10:40:05.577Z,94.60
2019-02-16T10:43:06.461Z,93.40
2019-02-16T10:46:01.528Z,94.80
2019-02-16T10:48:52.807Z,92.90
2019-02-16T10:51:40.792Z,91.30
2019-02-16T10:54:28.028Z,92.70
2019-02-16T10:57:25.169Z,92.30
2019-02-16T11:00:21.810Z,91.90
2019-02-16T11:03:15.536Z,91.10
2019-02-16T11:06:28.104Z,90.70
2019-02-16T11:09:19.885Z,90.80
2019-02-16T11:12:21.861Z,91.70
2019-02-16T11:15:22.742Z,91.00
2019-02-16T11:21:38.737Z,90.20
2019-02-16T11:24:39.705Z,91.00
2019-02-16T11:27:41.384Z,90.50
2019-02-16T11:30:43.085Z,89.40
2019-02-16T11:33:44.928Z,89.40
2019-02-16T11:36:36.713Z,87.30
2019-02-16T11:39:38.180Z,85.20
2019-02-16T11:45:40.105Z,88.00
2019-02-16T11:48:47.216Z,84.90
2019-02-16T11:51:48.865Z,83.00
2019-02-16T11:54:45.472Z,84.20
2019-02-16T11:58:00.617Z,86.10
2019-02-16T12:01:05.588Z,82.20
2019-02-16T12:04:06.469Z,76.90
2019-02-16T12:06:59.140Z,83.00
2019-02-16T12:13:17.417Z,77.30
2019-02-16T12:16:18.559Z,78.60
2019-02-16T12:19:11.256Z,76.90
2019-02-16T12:22:18.504Z,76.40
2019-02-16T12:25:19.841Z,75.40
2019-02-16T12:28:08.638Z,74.50
2019-02-16T12:31:10.470Z,75.90
2019-02-16T12:34:00.238Z,74.20
2019-02-16T12:37:01.349Z,76.00
2019-02-16T12:39:59.156Z,75.40
2019-02-16T12:43:00.433Z,75.70
2019-02-16T12:46:09.110Z,72.90
2019-02-16T12:48:58.192Z,75.10
2019-02-16T12:51:55.565Z,74.80
2019-02-16T12:55:02.782Z,70.20
2019-02-16T12:57:50.993Z,67.90
2019-02-16T13:00:44.393Z,63.30
2019-02-16T13:03:38.574Z,59.90
2019-02-16T13:06:32.245Z,59.10
2019-02-16T13:09:27.869Z,60.60
2019-02-16T13:12:32.720Z,59.70
2019-02-16T13:15:40.262Z,60.50
2019-02-16T13:18:42.258Z,61.30
2019-02-16T13:21:53.544Z,58.00
2019-02-16T13:24:42.009Z,56.80
2019-02-16T13:31:09.609Z,57.80
2019-02-16T13:34:10.730Z,56.90
2019-02-16T13:37:09.956Z,59.50
2019-02-16T13:43:16.384Z,58.60
2019-02-16T13:46:18.313Z,60.00
2019-02-16T13:49:08.884Z,59.00
2019-02-16T13:52:09.653Z,61.60
2019-02-16T13:55:11.449Z,61.70
2019-02-16T13:58:06.035Z,60.90
2019-02-16T14:01:10.171Z,63.50
2019-02-16T14:04:11.837Z,63.90
2019-02-16T14:07:12.997Z,63.90
2019-02-16T14:10:08.269Z,66.40
2019-02-16T14:16:23.081Z,66.00
2019-02-16T14:18:53.659Z,67.10
2019-02-16T14:21:23.957Z,67.00
2019-02-16T14:23:54.524Z,65.50
2019-02-16T14:26:24.815Z,65.50
2019-02-16T14:28:54.933Z,62.70
2019-02-16T14:31:44.609Z,66.10
2019-02-16T14:34:27.460Z,67.80
2019-02-16T14:40:12.929Z,64.60
2019-02-16T14:42:55.469Z,64.40
2019-02-16T14:45:39.912Z,63.60
2019-02-16T14:48:22.381Z,62.70
2019-02-16T14:51:05.304Z,64.50
2019-02-16T14:53:48.205Z,64.70
2019-02-16T14:56:28.697Z,64.90
2019-02-16T14:59:18.256Z,66.40
2019-02-16T15:02:00.221Z,65.70
2019-02-16T15:04:42.019Z,65.20
2019-02-16T15:07:22.777Z,65.50
2019-02-16T15:10:12.516Z,65.30
2019-02-16T15:12:54.667Z,65.40
2019-02-16T15:15:37.058Z,67.60
2019-02-16T15:18:19.193Z,67.20
2019-02-16T15:21:00.946Z,68.90
2019-02-16T15:23:43.837Z,68.10
2019-02-16T15:26:28.683Z,67.60
2019-02-16T15:29:08.252Z,68.10
2019-02-16T15:31:57.560Z,68.20
2019-02-16T15:34:39.598Z,67.80
2019-02-16T15:37:22.765Z,69.10
2019-02-16T15:40:04.664Z,68.80
2019-02-16T15:42:47.465Z,70.20
2019-02-16T15:45:29.457Z,69.00
2019-02-16T15:48:11.744Z,69.30
2019-02-16T15:50:53.392Z,70.00
2019-02-16T15:53:35.469Z,72.30
2019-02-16T15:56:17.777Z,71.60
2019-02-16T15:58:59.831Z,72.70
2019-02-16T16:01:42.308Z,73.40
2019-02-16T16:04:25.191Z,74.30
2019-02-16T16:07:13.496Z,74.40
2019-02-16T16:10:15.413Z,75.80
2019-02-16T16:16:44.558Z,79.30
2019-02-16T16:19:27.004Z,80.10
2019-02-16T16:22:04.552Z,80.30
2019-02-16T16:24:42.492Z,81.40
2019-02-16T16:27:24.436Z,82.10
2019-02-16T16:30:07.024Z,82.90
2019-02-16T16:32:50.540Z,85.10
2019-02-16T16:35:33.992Z,87.40
2019-02-16T16:38:21.182Z,89.40
2019-02-16T16:41:13.233Z,90.40
2019-02-16T16:44:02.413Z,93.00
2019-02-16T16:46:58.416Z,95.10
2019-02-16T16:53:18.794Z,95.20
2019-02-16T16:56:28.955Z,97.10
2019-02-16T16:59:36.942Z,97.70
2019-02-16T17:02:37.881Z,97.70
2019-02-16T17:05:32.265Z,99.90
2019-02-16T17:15:10.711Z,99.90
2019-02-16T17:17:56.753Z,99.90
2019-02-16T17:21:05.428Z,99.90
2019-02-16T17:23:57.472Z,99.90
2019-02-16T17:26:59.101Z,99.90
2019-02-16T17:30:00.241Z,99.90
2019-02-16T17:33:01.513Z,99.90
2019-02-16T17:36:02.825Z,99.90
2019-02-16T17:39:04.155Z,99.90
2019-02-16T17:45:19.893Z,99.90
2019-02-16T17:48:08.993Z,99.90
2019-02-16T17:51:17.785Z,99.90
2019-02-16T17:54:19.352Z,99.90
2019-02-16T17:57:21.103Z,99.90
2019-02-16T18:00:09.517Z,99.90
2019-02-16T18:03:06.749Z,99.90
2019-02-16T18:06:08.068Z,99.90
2019-02-16T18:09:09.808Z,99.90
2019-02-16T18:12:03.589Z,99.90
2019-02-16T18:18:23.077Z,99.90
2019-02-16T18:21:26.748Z,99.90
2019-02-16T18:24:24.564Z,99.90
2019-02-16T18:27:25.809Z,99.90
2019-02-16T18:30:17.221Z,99.90
2019-02-16T18:33:07.992Z,99.90
2019-02-16T18:35:59.913Z,99.90
2019-02-16T18:38:48.017Z,99.90
2019-02-16T18:41:56.470Z,99.90
2019-02-16T18:44:48.301Z,99.90
2019-02-16T18:47:52.309Z,99.90
2019-02-16T18:50:54.005Z,99.90
2019-02-16T18:53:55.100Z,99.90
2019-02-16T18:57:06.121Z,99.90
2019-02-16T18:59:59.960Z,99.90
2019-02-16T19:02:55.272Z,99.90
2019-02-16T19:05:50.065Z,99.90
2019-02-16T19:11:56.668Z,99.90
2019-02-16T19:14:44.335Z,99.90
2019-02-16T19:17:39.677Z,99.90
2019-02-16T19:20:28.291Z,99.90
2019-02-16T19:23:07.411Z,99.90
2019-02-16T19:25:59.564Z,99.90
2019-02-16T19:29:08.057Z,99.90
2019-02-16T19:31:59.694Z,99.90
2019-02-16T19:35:01.593Z,99.90
2019-02-16T19:38:03.301Z,99.90
2019-02-16T19:41:06.350Z,99.90
2019-02-16T19:44:07.645Z,99.90
2019-02-16T19:50:23.273Z,99.90
2019-02-16T19:53:24.229Z,99.90
2019-02-16T19:56:25.659Z,99.90
2019-02-16T19:59:30.607Z,99.90
2019-02-16T20:02:22.920Z,99.90
2019-02-16T20:05:17.925Z,99.90
2019-02-16T20:07:59.664Z,99.90
2019-02-16T20:10:44.577Z,99.90
2019-02-16T20:13:23.345Z,99.90
2019-02-16T20:16:00.384Z,99.90
2019-02-16T20:18:52.708Z,99.90
2019-02-16T20:21:42.400Z,99.90
2019-02-16T20:24:29.179Z,99.90
2019-02-16T20:27:10.924Z,99.90
2019-02-16T20:29:55.475Z,99.90
2019-02-16T20:32:45.516Z,99.90
2019-02-16T20:35:47.053Z,99.90
2019-02-16T20:38:50.771Z,99.90
2019-02-16T20:41:51.745Z,99.90
2019-02-16T20:44:53.409Z,99.90
2019-02-16T20:47:58.157Z,99.90
2019-02-16T20:50:49.360Z,99.90
2019-02-16T20:53:44.959Z,99.90
2019-02-16T20:56:29.198Z,99.90
2019-02-16T20:59:16.764Z,99.90
2019-02-16T21:01:59.772Z,99.90
2019-02-16T21:04:48.068Z,99.90
2019-02-16T21:07:35.680Z,99.90
2019-02-16T21:10:31.692Z,99.90
2019-02-16T21:13:11.317Z,99.90
2019-02-16T21:15:48.254Z,99.90
2019-02-16T21:18:31.965Z,99.90
2019-02-16T21:21:32.984Z,99.90
2019-02-16T21:24:21.431Z,99.90
2019-02-16T21:27:10.353Z,99.90
2019-02-16T21:30:05.632Z,99.90
2019-02-16T21:32:45.684Z,99.90
2019-02-16T21:35:24.889Z,99.90
2019-02-16T21:38:08.354Z,99.90
2019-02-16T21:40:52.437Z,99.90
2019-02-16T21:43:47.330Z,99.90
2019-02-16T21:46:48.339Z,99.90
2019-02-16T21:49:46.304Z,99.90
2019-02-16T21:52:23.821Z,99.90
2019-02-16T21:55:32.309Z,99.90
2019-02-16T21:58:33.900Z,99.90
2019-02-16T22:01:25.069Z,99.90
2019-02-16T22:04:17.433Z,99.90
2019-02-16T22:07:19.028Z,99.90
2019-02-16T22:10:23.190Z,99.90
2019-02-16T22:13:11.009Z,99.90
2019-02-16T22:15:52.941Z,99.90
2019-02-16T22:18:35.571Z,99.90
2019-02-16T22:21:18.241Z,99.90
2019-02-16T22:24:00.940Z,99.90
2019-02-16T22:26:43.264Z,99.90
2019-02-16T22:29:25.544Z,99.90
2019-02-16T22:32:08.061Z,99.90
2019-02-16T22:34:50.447Z,99.90
2019-02-16T22:37:32.734Z,99.90
2019-02-16T22:40:14.824Z,99.90
2019-02-16T22:42:56.680Z,99.90
2019-02-16T22:45:39.281Z,99.90
2019-02-16T22:48:21.948Z,99.90
2019-02-16T22:51:04.023Z,99.90
2019-02-16T22:53:46.792Z,99.90
2019-02-16T22:56:29.357Z,99.90
2019-02-16T22:59:11.532Z,99.90
2019-02-16T23:01:53.618Z,99.90
2019-02-16T23:04:34.117Z,99.90
2019-02-16T23:10:28.109Z,99.90
2019-02-16T23:13:17.700Z,99.90
2019-02-16T23:16:00.296Z,99.90
2019-02-16T23:18:43.071Z,99.90
2019-02-16T23:21:25.788Z,99.90
2019-02-16T23:24:08.545Z,99.90
2019-02-16T23:26:50.988Z,99.90
2019-02-16T23:29:33.520Z,99.90
2019-02-16T23:32:15.604Z,99.90
2019-02-16T23:34:57.873Z,99.90
2019-02-16T23:37:40.838Z,99.90
2019-02-16T23:40:23.340Z,99.90
2019-02-16T23:43:04.373Z,99.90
2019-02-16T23:45:54.249Z,99.90
2019-02-16T23:48:36.320Z,99.90
2019-02-16T23:51:19.572Z,99.90
2019-02-16T23:54:02.420Z,99.90
2019-02-16T23:56:45.004Z,99.90
2019-02-16T23:59:27.468Z,99.90
